sensor_id;sensor_type;location;lat;lon;timestamp;P1;durP1;ratioP1;P2;durP2;ratioP2
5499;SDS011;2772;42.700;23.304;2022-08-01T00:01:52;10.77;;;7.27;;
5499;SDS011;2772;42.700;23.304;2022-08-01T00:04:19;7.90;;;6.40;;
5499;SDS011;2772;42.700;23.304;2022-08-01T00:06:45;7.80;;;7.00;;
5499;SDS011;2772;42.700;23.304;2022-08-01T00:09:12;5.60;;;5.10;;
5499;SDS011;2772;42.700;23.304;2022-08-01T00:11:41;8.13;;;5.10;;
5499;SDS011;2772;42.700;23.304;2022-08-01T00:14:08;5.47;;;5.07;;
5499;SDS011;2772;42.700;23.304;2022-08-01T00:16:35;4.40;;;4.10;;
5499;SDS011;2772;42.700;23.304;2022-08-01T00:19:02;5.47;;;5.07;;
5499;SDS011;2772;42.700;23.304;2022-08-01T00:21:29;5.20;;;4.90;;
5499;SDS011;2772;42.700;23.304;2022-08-01T00:23:56;6.27;;;5.77;;
5499;SDS011;2772;42.700;23.304;2022-08-01T00:26:24;5.70;;;4.87;;
5499;SDS011;2772;42.700;23.304;2022-08-01T00:28:52;6.60;;;6.10;;
5499;SDS011;2772;42.700;23.304;2022-08-01T00:31:19;8.20;;;7.50;;
5499;SDS011;2772;42.700;23.304;2022-08-01T00:33:46;8.63;;;7.83;;
5499;SDS011;2772;42.700;23.304;2022-08-01T00:36:13;8.63;;;7.83;;
5499;SDS011;2772;42.700;23.304;2022-08-01T00:38:39;10.33;;;8.60;;
5499;SDS011;2772;42.700;23.304;2022-08-01T00:41:06;9.63;;;8.10;;
5499;SDS011;2772;42.700;23.304;2022-08-01T00:43:33;9.43;;;8.47;;
5499;SDS011;2772;42.700;23.304;2022-08-01T00:46:01;12.50;;;8.63;;
5499;SDS011;2772;42.700;23.304;2022-08-01T00:48:28;9.73;;;8.73;;
5499;SDS011;2772;42.700;23.304;2022-08-01T00:50:55;8.50;;;7.60;;
5499;SDS011;2772;42.700;23.304;2022-08-01T00:53:22;9.40;;;8.60;;
5499;SDS011;2772;42.700;23.304;2022-08-01T00:55:50;9.23;;;8.33;;
5499;SDS011;2772;42.700;23.304;2022-08-01T00:58:17;9.10;;;8.30;;
5499;SDS011;2772;42.700;23.304;2022-08-01T01:00:44;8.83;;;7.97;;
5499;SDS011;2772;42.700;23.304;2022-08-01T01:03:12;9.83;;;8.20;;
5499;SDS011;2772;42.700;23.304;2022-08-01T01:05:54;12.10;;;8.57;;
5499;SDS011;2772;42.700;23.304;2022-08-01T01:08:30;8.60;;;7.80;;
5499;SDS011;2772;42.700;23.304;2022-08-01T01:11:03;8.23;;;7.43;;
5499;SDS011;2772;42.700;23.304;2022-08-01T01:13:38;8.63;;;7.83;;
5499;SDS011;2772;42.700;23.304;2022-08-01T01:16:10;8.20;;;7.50;;
5499;SDS011;2772;42.700;23.304;2022-08-01T01:18:43;8.23;;;7.53;;
5499;SDS011;2772;42.700;23.304;2022-08-01T01:24:09;7.93;;;7.17;;
5499;SDS011;2772;42.700;23.304;2022-08-01T01:26:45;8.73;;;6.50;;
5499;SDS011;2772;42.700;23.304;2022-08-01T01:29:20;6.83;;;6.23;;
5499;SDS011;2772;42.700;23.304;2022-08-01T01:31:53;8.83;;;6.67;;
5499;SDS011;2772;42.700;23.304;2022-08-01T01:34:23;7.17;;;6.57;;
5499;SDS011;2772;42.700;23.304;2022-08-01T01:36:53;8.10;;;6.00;;
5499;SDS011;2772;42.700;23.304;2022-08-01T01:39:21;9.13;;;6.43;;
5499;SDS011;2772;42.700;23.304;2022-08-01T01:41:51;7.60;;;6.77;;
5499;SDS011;2772;42.700;23.304;2022-08-01T01:44:22;10.50;;;6.70;;
5499;SDS011;2772;42.700;23.304;2022-08-01T01:46:51;7.40;;;6.50;;
5499;SDS011;2772;42.700;23.304;2022-08-01T01:49:20;7.67;;;6.73;;
5499;SDS011;2772;42.700;23.304;2022-08-01T01:51:50;12.83;;;7.10;;
5499;SDS011;2772;42.700;23.304;2022-08-01T01:54:19;16.97;;;7.03;;
5499;SDS011;2772;42.700;23.304;2022-08-01T01:56:48;7.13;;;6.43;;
5499;SDS011;2772;42.700;23.304;2022-08-01T01:59:17;7.67;;;6.33;;
5499;SDS011;2772;42.700;23.304;2022-08-01T02:01:48;13.60;;;6.90;;
5499;SDS011;2772;42.700;23.304;2022-08-01T02:04:17;10.33;;;6.70;;
5499;SDS011;2772;42.700;23.304;2022-08-01T02:06:46;10.30;;;6.27;;
5499;SDS011;2772;42.700;23.304;2022-08-01T02:09:17;7.83;;;5.40;;
5499;SDS011;2772;42.700;23.304;2022-08-01T02:11:44;19.30;;;5.83;;
5499;SDS011;2772;42.700;23.304;2022-08-01T02:14:13;9.40;;;5.87;;
5499;SDS011;2772;42.700;23.304;2022-08-01T02:16:43;9.53;;;5.37;;
5499;SDS011;2772;42.700;23.304;2022-08-01T02:19:12;18.80;;;5.90;;
5499;SDS011;2772;42.700;23.304;2022-08-01T02:21:40;6.07;;;5.17;;
5499;SDS011;2772;42.700;23.304;2022-08-01T02:24:14;4.90;;;4.40;;
5499;SDS011;2772;42.700;23.304;2022-08-01T02:26:50;5.53;;;4.47;;
5499;SDS011;2772;42.700;23.304;2022-08-01T02:29:21;4.47;;;4.17;;
5499;SDS011;2772;42.700;23.304;2022-08-01T02:31:53;3.90;;;3.60;;
5499;SDS011;2772;42.700;23.304;2022-08-01T02:34:22;5.63;;;4.10;;
5499;SDS011;2772;42.700;23.304;2022-08-01T02:36:51;3.70;;;3.50;;
5499;SDS011;2772;42.700;23.304;2022-08-01T02:39:22;5.90;;;4.10;;
5499;SDS011;2772;42.700;23.304;2022-08-01T02:41:52;4.57;;;4.17;;
5499;SDS011;2772;42.700;23.304;2022-08-01T02:44:24;4.00;;;3.60;;
5499;SDS011;2772;42.700;23.304;2022-08-01T02:46:56;5.80;;;4.40;;
5499;SDS011;2772;42.700;23.304;2022-08-01T02:49:28;5.00;;;4.60;;
5499;SDS011;2772;42.700;23.304;2022-08-01T02:51:59;5.43;;;4.90;;
5499;SDS011;2772;42.700;23.304;2022-08-01T02:54:29;5.47;;;5.07;;
5499;SDS011;2772;42.700;23.304;2022-08-01T02:56:57;5.40;;;4.90;;
5499;SDS011;2772;42.700;23.304;2022-08-01T02:59:25;5.30;;;4.90;;
5499;SDS011;2772;42.700;23.304;2022-08-01T03:01:55;9.53;;;5.40;;
5499;SDS011;2772;42.700;23.304;2022-08-01T03:04:23;5.37;;;4.97;;
5499;SDS011;2772;42.700;23.304;2022-08-01T03:06:52;5.23;;;4.83;;
5499;SDS011;2772;42.700;23.304;2022-08-01T03:09:23;4.87;;;4.47;;
5499;SDS011;2772;42.700;23.304;2022-08-01T03:11:52;8.30;;;5.07;;
5499;SDS011;2772;42.700;23.304;2022-08-01T03:14:22;6.90;;;5.20;;
5499;SDS011;2772;42.700;23.304;2022-08-01T03:16:51;8.63;;;6.00;;
5499;SDS011;2772;42.700;23.304;2022-08-01T03:19:22;9.40;;;5.63;;
5499;SDS011;2772;42.700;23.304;2022-08-01T03:21:50;7.47;;;6.13;;
5499;SDS011;2772;42.700;23.304;2022-08-01T03:24:20;6.27;;;5.70;;
5499;SDS011;2772;42.700;23.304;2022-08-01T03:26:49;10.37;;;5.30;;
5499;SDS011;2772;42.700;23.304;2022-08-01T03:29:21;5.47;;;5.07;;
5499;SDS011;2772;42.700;23.304;2022-08-01T03:31:51;6.30;;;5.70;;
5499;SDS011;2772;42.700;23.304;2022-08-01T03:34:18;7.87;;;6.00;;
5499;SDS011;2772;42.700;23.304;2022-08-01T03:36:47;9.83;;;5.90;;
5499;SDS011;2772;42.700;23.304;2022-08-01T03:39:18;6.73;;;6.00;;
5499;SDS011;2772;42.700;23.304;2022-08-01T03:41:51;8.43;;;5.80;;
5499;SDS011;2772;42.700;23.304;2022-08-01T03:44:26;6.80;;;6.10;;
5499;SDS011;2772;42.700;23.304;2022-08-01T03:46:58;9.23;;;6.30;;
5499;SDS011;2772;42.700;23.304;2022-08-01T03:49:28;9.20;;;6.73;;
5499;SDS011;2772;42.700;23.304;2022-08-01T03:51:56;9.37;;;6.13;;
5499;SDS011;2772;42.700;23.304;2022-08-01T03:54:30;8.93;;;6.20;;
5499;SDS011;2772;42.700;23.304;2022-08-01T03:56:58;9.00;;;6.03;;
5499;SDS011;2772;42.700;23.304;2022-08-01T03:59:27;6.70;;;6.07;;
5499;SDS011;2772;42.700;23.304;2022-08-01T04:01:55;6.77;;;6.17;;
5499;SDS011;2772;42.700;23.304;2022-08-01T04:04:22;7.50;;;6.80;;
5499;SDS011;2772;42.700;23.304;2022-08-01T04:06:49;9.70;;;7.07;;
5499;SDS011;2772;42.700;23.304;2022-08-01T04:09:19;16.57;;;10.00;;
5499;SDS011;2772;42.700;23.304;2022-08-01T04:11:48;13.67;;;9.00;;
5499;SDS011;2772;42.700;23.304;2022-08-01T04:14:15;12.27;;;9.20;;
5499;SDS011;2772;42.700;23.304;2022-08-01T04:16:42;11.97;;;7.93;;
5499;SDS011;2772;42.700;23.304;2022-08-01T04:19:09;13.53;;;7.57;;
5499;SDS011;2772;42.700;23.304;2022-08-01T04:21:36;8.87;;;7.97;;
5499;SDS011;2772;42.700;23.304;2022-08-01T04:24:05;11.63;;;8.93;;
5499;SDS011;2772;42.700;23.304;2022-08-01T04:26:36;9.63;;;8.73;;
5499;SDS011;2772;42.700;23.304;2022-08-01T04:29:07;12.50;;;8.50;;
5499;SDS011;2772;42.700;23.304;2022-08-01T04:31:35;9.50;;;8.37;;
5499;SDS011;2772;42.700;23.304;2022-08-01T04:34:05;12.80;;;8.03;;
5499;SDS011;2772;42.700;23.304;2022-08-01T04:36:33;17.90;;;8.63;;
5499;SDS011;2772;42.700;23.304;2022-08-01T04:39:03;12.67;;;8.37;;
5499;SDS011;2772;42.700;23.304;2022-08-01T04:41:32;19.40;;;10.23;;
5499;SDS011;2772;42.700;23.304;2022-08-01T04:44:01;16.57;;;9.20;;
5499;SDS011;2772;42.700;23.304;2022-08-01T04:46:30;20.70;;;10.40;;
5499;SDS011;2772;42.700;23.304;2022-08-01T04:48:59;16.10;;;9.10;;
5499;SDS011;2772;42.700;23.304;2022-08-01T04:51:26;30.13;;;11.13;;
5499;SDS011;2772;42.700;23.304;2022-08-01T04:53:53;10.87;;;8.70;;
5499;SDS011;2772;42.700;23.304;2022-08-01T04:56:21;11.93;;;9.37;;
5499;SDS011;2772;42.700;23.304;2022-08-01T04:58:48;14.47;;;8.83;;
5499;SDS011;2772;42.700;23.304;2022-08-01T05:01:37;14.20;;;9.13;;
5499;SDS011;2772;42.700;23.304;2022-08-01T05:04:04;11.60;;;8.70;;
5499;SDS011;2772;42.700;23.304;2022-08-01T05:06:31;15.63;;;8.90;;
5499;SDS011;2772;42.700;23.304;2022-08-01T05:08:58;16.13;;;8.83;;
5499;SDS011;2772;42.700;23.304;2022-08-01T05:11:24;19.37;;;11.27;;
5499;SDS011;2772;42.700;23.304;2022-08-01T05:13:51;11.93;;;7.57;;
5499;SDS011;2772;42.700;23.304;2022-08-01T05:16:18;13.77;;;8.13;;
5499;SDS011;2772;42.700;23.304;2022-08-01T05:18:47;11.50;;;8.43;;
5499;SDS011;2772;42.700;23.304;2022-08-01T05:21:13;12.60;;;8.07;;
5499;SDS011;2772;42.700;23.304;2022-08-01T05:23:40;15.97;;;8.70;;
5499;SDS011;2772;42.700;23.304;2022-08-01T05:26:07;13.70;;;8.67;;
5499;SDS011;2772;42.700;23.304;2022-08-01T05:28:34;22.47;;;9.20;;
5499;SDS011;2772;42.700;23.304;2022-08-01T05:31:01;18.70;;;7.73;;
5499;SDS011;2772;42.700;23.304;2022-08-01T05:33:29;16.03;;;8.00;;
5499;SDS011;2772;42.700;23.304;2022-08-01T05:35:57;15.83;;;7.20;;
5499;SDS011;2772;42.700;23.304;2022-08-01T05:38:24;10.60;;;7.20;;
5499;SDS011;2772;42.700;23.304;2022-08-01T05:40:51;8.50;;;7.30;;
5499;SDS011;2772;42.700;23.304;2022-08-01T05:43:17;9.33;;;6.40;;
5499;SDS011;2772;42.700;23.304;2022-08-01T05:45:44;11.00;;;7.13;;
5499;SDS011;2772;42.700;23.304;2022-08-01T05:48:11;16.23;;;7.07;;
5499;SDS011;2772;42.700;23.304;2022-08-01T05:50:38;12.03;;;8.40;;
5499;SDS011;2772;42.700;23.304;2022-08-01T05:53:07;18.97;;;7.07;;
5499;SDS011;2772;42.700;23.304;2022-08-01T05:55:34;14.17;;;7.77;;
5499;SDS011;2772;42.700;23.304;2022-08-01T05:58:01;9.80;;;6.33;;
5499;SDS011;2772;42.700;23.304;2022-08-01T06:00:28;7.90;;;6.10;;
5499;SDS011;2772;42.700;23.304;2022-08-01T06:02:55;9.83;;;6.27;;
5499;SDS011;2772;42.700;23.304;2022-08-01T06:05:22;13.70;;;6.77;;
5499;SDS011;2772;42.700;23.304;2022-08-01T06:07:48;8.03;;;5.60;;
5499;SDS011;2772;42.700;23.304;2022-08-01T06:10:17;7.13;;;5.27;;
5499;SDS011;2772;42.700;23.304;2022-08-01T06:12:43;10.50;;;7.23;;
5499;SDS011;2772;42.700;23.304;2022-08-01T06:15:11;5.70;;;5.20;;
5499;SDS011;2772;42.700;23.304;2022-08-01T06:17:38;4.87;;;4.37;;
5499;SDS011;2772;42.700;23.304;2022-08-01T06:20:06;6.97;;;5.60;;
5499;SDS011;2772;42.700;23.304;2022-08-01T06:22:34;6.40;;;4.63;;
5499;SDS011;2772;42.700;23.304;2022-08-01T06:25:01;7.13;;;5.73;;
5499;SDS011;2772;42.700;23.304;2022-08-01T06:27:29;4.83;;;4.33;;
5499;SDS011;2772;42.700;23.304;2022-08-01T06:29:56;5.50;;;4.27;;
5499;SDS011;2772;42.700;23.304;2022-08-01T06:32:23;4.60;;;4.20;;
5499;SDS011;2772;42.700;23.304;2022-08-01T06:34:51;8.07;;;4.20;;
5499;SDS011;2772;42.700;23.304;2022-08-01T06:37:18;5.23;;;4.73;;
5499;SDS011;2772;42.700;23.304;2022-08-01T06:39:46;3.90;;;3.60;;
5499;SDS011;2772;42.700;23.304;2022-08-01T06:42:14;6.73;;;5.40;;
5499;SDS011;2772;42.700;23.304;2022-08-01T06:44:42;7.70;;;4.13;;
5499;SDS011;2772;42.700;23.304;2022-08-01T06:47:09;4.97;;;4.07;;
5499;SDS011;2772;42.700;23.304;2022-08-01T06:49:36;7.50;;;4.30;;
5499;SDS011;2772;42.700;23.304;2022-08-01T06:52:03;9.93;;;4.23;;
5499;SDS011;2772;42.700;23.304;2022-08-01T06:54:30;4.27;;;3.97;;
5499;SDS011;2772;42.700;23.304;2022-08-01T06:56:57;4.20;;;3.77;;
5499;SDS011;2772;42.700;23.304;2022-08-01T06:59:24;5.20;;;4.40;;
5499;SDS011;2772;42.700;23.304;2022-08-01T07:01:52;5.77;;;5.20;;
5499;SDS011;2772;42.700;23.304;2022-08-01T07:04:19;5.27;;;4.80;;
5499;SDS011;2772;42.700;23.304;2022-08-01T07:06:46;10.77;;;8.03;;
5499;SDS011;2772;42.700;23.304;2022-08-01T07:09:13;5.50;;;5.00;;
5499;SDS011;2772;42.700;23.304;2022-08-01T07:11:39;4.50;;;4.10;;
5499;SDS011;2772;42.700;23.304;2022-08-01T07:14:06;9.03;;;7.63;;
5499;SDS011;2772;42.700;23.304;2022-08-01T07:16:33;12.03;;;7.90;;
5499;SDS011;2772;42.700;23.304;2022-08-01T07:19:01;11.10;;;7.90;;
5499;SDS011;2772;42.700;23.304;2022-08-01T07:21:28;4.57;;;4.20;;
5499;SDS011;2772;42.700;23.304;2022-08-01T07:23:55;15.93;;;7.03;;
5499;SDS011;2772;42.700;23.304;2022-08-01T07:26:22;6.53;;;4.40;;
5499;SDS011;2772;42.700;23.304;2022-08-01T07:28:49;6.73;;;5.97;;
5499;SDS011;2772;42.700;23.304;2022-08-01T07:31:16;4.47;;;4.07;;
5499;SDS011;2772;42.700;23.304;2022-08-01T07:33:43;6.03;;;4.53;;
5499;SDS011;2772;42.700;23.304;2022-08-01T07:36:11;6.27;;;5.67;;
5499;SDS011;2772;42.700;23.304;2022-08-01T07:38:38;6.30;;;3.93;;
5499;SDS011;2772;42.700;23.304;2022-08-01T07:41:05;4.70;;;4.30;;
5499;SDS011;2772;42.700;23.304;2022-08-01T07:43:32;5.20;;;3.90;;
5499;SDS011;2772;42.700;23.304;2022-08-01T07:46:01;7.83;;;5.47;;
5499;SDS011;2772;42.700;23.304;2022-08-01T07:48:27;12.80;;;7.20;;
5499;SDS011;2772;42.700;23.304;2022-08-01T07:50:54;7.87;;;5.83;;
5499;SDS011;2772;42.700;23.304;2022-08-01T07:53:23;12.93;;;9.90;;
5499;SDS011;2772;42.700;23.304;2022-08-01T07:55:50;13.10;;;9.90;;
5499;SDS011;2772;42.700;23.304;2022-08-01T07:58:17;9.93;;;8.30;;
5499;SDS011;2772;42.700;23.304;2022-08-01T08:00:44;7.23;;;6.57;;
5499;SDS011;2772;42.700;23.304;2022-08-01T08:03:10;5.17;;;4.77;;
5499;SDS011;2772;42.700;23.304;2022-08-01T08:05:37;9.43;;;4.47;;
5499;SDS011;2772;42.700;23.304;2022-08-01T08:08:05;9.00;;;5.93;;
5499;SDS011;2772;42.700;23.304;2022-08-01T08:10:34;13.43;;;9.27;;
5499;SDS011;2772;42.700;23.304;2022-08-01T08:13:01;7.03;;;5.70;;
5499;SDS011;2772;42.700;23.304;2022-08-01T08:15:28;5.37;;;4.87;;
5499;SDS011;2772;42.700;23.304;2022-08-01T08:17:55;8.63;;;5.80;;
5499;SDS011;2772;42.700;23.304;2022-08-01T08:20:22;11.90;;;8.77;;
5499;SDS011;2772;42.700;23.304;2022-08-01T08:22:50;4.40;;;4.00;;
5499;SDS011;2772;42.700;23.304;2022-08-01T08:25:16;7.80;;;6.67;;
5499;SDS011;2772;42.700;23.304;2022-08-01T08:27:45;8.30;;;5.13;;
5499;SDS011;2772;42.700;23.304;2022-08-01T08:30:12;5.13;;;4.70;;
5499;SDS011;2772;42.700;23.304;2022-08-01T08:32:39;8.93;;;5.37;;
5499;SDS011;2772;42.700;23.304;2022-08-01T08:35:07;4.53;;;4.20;;
5499;SDS011;2772;42.700;23.304;2022-08-01T08:37:34;5.23;;;4.73;;
5499;SDS011;2772;42.700;23.304;2022-08-01T08:40:02;6.63;;;4.77;;
5499;SDS011;2772;42.700;23.304;2022-08-01T08:42:30;4.90;;;4.40;;
5499;SDS011;2772;42.700;23.304;2022-08-01T08:44:58;9.90;;;4.50;;
5499;SDS011;2772;42.700;23.304;2022-08-01T08:47:25;6.30;;;4.47;;
5499;SDS011;2772;42.700;23.304;2022-08-01T08:49:54;7.10;;;5.90;;
5499;SDS011;2772;42.700;23.304;2022-08-01T08:52:22;6.40;;;4.70;;
5499;SDS011;2772;42.700;23.304;2022-08-01T08:54:50;5.10;;;4.60;;
5499;SDS011;2772;42.700;23.304;2022-08-01T08:57:18;7.97;;;4.93;;
5499;SDS011;2772;42.700;23.304;2022-08-01T08:59:46;8.07;;;6.00;;
5499;SDS011;2772;42.700;23.304;2022-08-01T09:02:18;5.57;;;4.93;;
5499;SDS011;2772;42.700;23.304;2022-08-01T09:04:46;7.13;;;3.80;;
5499;SDS011;2772;42.700;23.304;2022-08-01T09:07:14;4.13;;;3.90;;
5499;SDS011;2772;42.700;23.304;2022-08-01T09:09:41;5.00;;;4.57;;
5499;SDS011;2772;42.700;23.304;2022-08-01T09:12:08;5.20;;;4.70;;
5499;SDS011;2772;42.700;23.304;2022-08-01T09:14:44;5.30;;;4.20;;
5499;SDS011;2772;42.700;23.304;2022-08-01T09:17:12;4.60;;;4.20;;
5499;SDS011;2772;42.700;23.304;2022-08-01T09:19:41;4.67;;;4.27;;
5499;SDS011;2772;42.700;23.304;2022-08-01T09:22:11;4.87;;;4.53;;
5499;SDS011;2772;42.700;23.304;2022-08-01T09:24:55;4.10;;;3.80;;
5499;SDS011;2772;42.700;23.304;2022-08-01T09:27:24;5.50;;;4.20;;
5499;SDS011;2772;42.700;23.304;2022-08-01T09:29:51;4.43;;;4.10;;
5499;SDS011;2772;42.700;23.304;2022-08-01T09:32:18;5.43;;;4.13;;
5499;SDS011;2772;42.700;23.304;2022-08-01T09:34:47;5.00;;;4.60;;
5499;SDS011;2772;42.700;23.304;2022-08-01T09:37:13;5.90;;;5.13;;
5499;SDS011;2772;42.700;23.304;2022-08-01T09:39:43;4.30;;;3.90;;
5499;SDS011;2772;42.700;23.304;2022-08-01T09:42:21;5.00;;;4.60;;
5499;SDS011;2772;42.700;23.304;2022-08-01T09:44:49;4.23;;;3.83;;
5499;SDS011;2772;42.700;23.304;2022-08-01T09:47:16;3.73;;;3.50;;
5499;SDS011;2772;42.700;23.304;2022-08-01T09:49:53;5.77;;;4.53;;
5499;SDS011;2772;42.700;23.304;2022-08-01T09:52:21;5.53;;;4.80;;
5499;SDS011;2772;42.700;23.304;2022-08-01T09:54:51;17.70;;;5.90;;
5499;SDS011;2772;42.700;23.304;2022-08-01T09:57:19;3.77;;;3.57;;
5499;SDS011;2772;42.700;23.304;2022-08-01T09:59:48;7.70;;;4.90;;
5499;SDS011;2772;42.700;23.304;2022-08-01T10:02:26;4.47;;;4.20;;
5499;SDS011;2772;42.700;23.304;2022-08-01T10:04:56;5.03;;;4.63;;
5499;SDS011;2772;42.700;23.304;2022-08-01T10:07:23;7.03;;;4.93;;
5499;SDS011;2772;42.700;23.304;2022-08-01T10:09:50;5.20;;;4.70;;
5499;SDS011;2772;42.700;23.304;2022-08-01T10:12:17;4.10;;;3.80;;
5499;SDS011;2772;42.700;23.304;2022-08-01T10:14:46;4.50;;;4.07;;
5499;SDS011;2772;42.700;23.304;2022-08-01T10:17:14;4.90;;;4.20;;
5499;SDS011;2772;42.700;23.304;2022-08-01T10:19:42;5.43;;;5.00;;
5499;SDS011;2772;42.700;23.304;2022-08-01T10:22:11;6.97;;;4.80;;
5499;SDS011;2772;42.700;23.304;2022-08-01T10:24:41;4.57;;;4.27;;
5499;SDS011;2772;42.700;23.304;2022-08-01T10:27:10;5.93;;;3.93;;
5499;SDS011;2772;42.700;23.304;2022-08-01T10:29:40;4.40;;;4.10;;
5499;SDS011;2772;42.700;23.304;2022-08-01T10:32:08;4.60;;;4.07;;
5499;SDS011;2772;42.700;23.304;2022-08-01T10:34:35;11.17;;;5.80;;
5499;SDS011;2772;42.700;23.304;2022-08-01T10:37:04;5.80;;;4.53;;
5499;SDS011;2772;42.700;23.304;2022-08-01T10:39:33;9.33;;;4.93;;
5499;SDS011;2772;42.700;23.304;2022-08-01T10:42:01;4.47;;;4.07;;
5499;SDS011;2772;42.700;23.304;2022-08-01T10:44:30;3.87;;;3.67;;
5499;SDS011;2772;42.700;23.304;2022-08-01T10:46:59;3.93;;;3.63;;
5499;SDS011;2772;42.700;23.304;2022-08-01T10:49:30;4.13;;;3.83;;
5499;SDS011;2772;42.700;23.304;2022-08-01T10:52:01;4.93;;;4.30;;
5499;SDS011;2772;42.700;23.304;2022-08-01T10:54:29;3.70;;;3.50;;
5499;SDS011;2772;42.700;23.304;2022-08-01T10:57:06;15.60;;;3.60;;
5499;SDS011;2772;42.700;23.304;2022-08-01T10:59:33;3.53;;;3.23;;
5499;SDS011;2772;42.700;23.304;2022-08-01T11:02:05;3.97;;;3.67;;
5499;SDS011;2772;42.700;23.304;2022-08-01T11:04:34;5.70;;;4.20;;
5499;SDS011;2772;42.700;23.304;2022-08-01T11:07:12;5.13;;;4.73;;
5499;SDS011;2772;42.700;23.304;2022-08-01T11:09:44;5.87;;;4.60;;
5499;SDS011;2772;42.700;23.304;2022-08-01T11:12:12;7.73;;;3.90;;
5499;SDS011;2772;42.700;23.304;2022-08-01T11:17:49;5.50;;;4.20;;
5499;SDS011;2772;42.700;23.304;2022-08-01T11:20:17;4.80;;;4.50;;
5499;SDS011;2772;42.700;23.304;2022-08-01T11:26:08;4.90;;;4.60;;
5499;SDS011;2772;42.700;23.304;2022-08-01T11:28:36;7.90;;;5.50;;
5499;SDS011;2772;42.700;23.304;2022-08-01T11:31:27;5.37;;;4.73;;
5499;SDS011;2772;42.700;23.304;2022-08-01T11:33:55;4.87;;;4.47;;
5499;SDS011;2772;42.700;23.304;2022-08-01T11:36:22;7.63;;;4.40;;
5499;SDS011;2772;42.700;23.304;2022-08-01T11:41:40;4.80;;;4.30;;
5499;SDS011;2772;42.700;23.304;2022-08-01T11:44:09;6.93;;;4.50;;
5499;SDS011;2772;42.700;23.304;2022-08-01T11:46:45;4.60;;;4.30;;
5499;SDS011;2772;42.700;23.304;2022-08-01T11:49:29;5.33;;;4.00;;
5499;SDS011;2772;42.700;23.304;2022-08-01T11:52:00;4.53;;;4.23;;
5499;SDS011;2772;42.700;23.304;2022-08-01T11:54:31;4.23;;;3.83;;
5499;SDS011;2772;42.700;23.304;2022-08-01T11:57:01;5.53;;;4.30;;
5499;SDS011;2772;42.700;23.304;2022-08-01T11:59:34;5.57;;;5.10;;
5499;SDS011;2772;42.700;23.304;2022-08-01T12:02:02;5.27;;;4.77;;
5499;SDS011;2772;42.700;23.304;2022-08-01T12:04:43;5.10;;;4.60;;
5499;SDS011;2772;42.700;23.304;2022-08-01T12:07:11;6.30;;;4.80;;
5499;SDS011;2772;42.700;23.304;2022-08-01T12:09:39;5.00;;;4.70;;
5499;SDS011;2772;42.700;23.304;2022-08-01T12:12:07;7.30;;;4.80;;
5499;SDS011;2772;42.700;23.304;2022-08-01T12:14:35;5.30;;;4.80;;
5499;SDS011;2772;42.700;23.304;2022-08-01T12:17:02;5.00;;;4.70;;
5499;SDS011;2772;42.700;23.304;2022-08-01T12:19:29;5.80;;;5.40;;
5499;SDS011;2772;42.700;23.304;2022-08-01T12:22:09;5.10;;;4.83;;
5499;SDS011;2772;42.700;23.304;2022-08-01T12:24:39;5.00;;;4.70;;
5499;SDS011;2772;42.700;23.304;2022-08-01T12:27:09;4.83;;;4.50;;
5499;SDS011;2772;42.700;23.304;2022-08-01T12:29:38;7.50;;;5.00;;
5499;SDS011;2772;42.700;23.304;2022-08-01T12:32:26;6.67;;;5.33;;
5499;SDS011;2772;42.700;23.304;2022-08-01T12:34:55;5.60;;;5.10;;
5499;SDS011;2772;42.700;23.304;2022-08-01T12:37:23;5.50;;;5.10;;
5499;SDS011;2772;42.700;23.304;2022-08-01T12:39:50;5.00;;;4.70;;
5499;SDS011;2772;42.700;23.304;2022-08-01T12:42:18;5.00;;;4.60;;
5499;SDS011;2772;42.700;23.304;2022-08-01T12:44:47;6.17;;;5.10;;
5499;SDS011;2772;42.700;23.304;2022-08-01T12:47:16;5.90;;;5.40;;
5499;SDS011;2772;42.700;23.304;2022-08-01T12:49:45;4.93;;;4.63;;
5499;SDS011;2772;42.700;23.304;2022-08-01T12:52:13;6.10;;;5.50;;
5499;SDS011;2772;42.700;23.304;2022-08-01T12:55:04;5.40;;;4.97;;
5499;SDS011;2772;42.700;23.304;2022-08-01T12:57:40;5.20;;;4.80;;
5499;SDS011;2772;42.700;23.304;2022-08-01T13:00:20;11.77;;;5.37;;
5499;SDS011;2772;42.700;23.304;2022-08-01T13:02:49;7.33;;;5.20;;
5499;SDS011;2772;42.700;23.304;2022-08-01T13:05:17;5.47;;;5.07;;
5499;SDS011;2772;42.700;23.304;2022-08-01T13:07:47;8.13;;;5.50;;
5499;SDS011;2772;42.700;23.304;2022-08-01T13:10:24;5.53;;;3.90;;
5499;SDS011;2772;42.700;23.304;2022-08-01T13:12:54;6.10;;;5.07;;
5499;SDS011;2772;42.700;23.304;2022-08-01T13:15:26;5.10;;;4.80;;
5499;SDS011;2772;42.700;23.304;2022-08-01T13:17:57;4.97;;;4.60;;
5499;SDS011;2772;42.700;23.304;2022-08-01T13:20:26;4.77;;;4.47;;
5499;SDS011;2772;42.700;23.304;2022-08-01T13:22:54;11.47;;;4.90;;
5499;SDS011;2772;42.700;23.304;2022-08-01T13:25:45;5.27;;;4.77;;
5499;SDS011;2772;42.700;23.304;2022-08-01T13:28:15;4.93;;;4.50;;
5499;SDS011;2772;42.700;23.304;2022-08-01T13:30:50;11.53;;;5.77;;
5499;SDS011;2772;42.700;23.304;2022-08-01T13:33:21;5.03;;;4.63;;
5499;SDS011;2772;42.700;23.304;2022-08-01T13:35:49;5.07;;;4.60;;
5499;SDS011;2772;42.700;23.304;2022-08-01T13:38:17;5.93;;;5.23;;
5499;SDS011;2772;42.700;23.304;2022-08-01T13:40:44;4.83;;;4.50;;
5499;SDS011;2772;42.700;23.304;2022-08-01T13:43:11;4.67;;;4.47;;
5499;SDS011;2772;42.700;23.304;2022-08-01T13:45:40;4.43;;;4.13;;
5499;SDS011;2772;42.700;23.304;2022-08-01T13:48:08;5.00;;;3.90;;
5499;SDS011;2772;42.700;23.304;2022-08-01T13:50:35;4.90;;;4.60;;
5499;SDS011;2772;42.700;23.304;2022-08-01T13:53:02;5.60;;;4.50;;
5499;SDS011;2772;42.700;23.304;2022-08-01T13:55:29;4.10;;;3.90;;
5499;SDS011;2772;42.700;23.304;2022-08-01T13:57:55;9.20;;;4.50;;
5499;SDS011;2772;42.700;23.304;2022-08-01T14:00:22;4.70;;;4.40;;
5499;SDS011;2772;42.700;23.304;2022-08-01T14:02:51;5.33;;;4.80;;
5499;SDS011;2772;42.700;23.304;2022-08-01T14:05:17;4.67;;;4.37;;
5499;SDS011;2772;42.700;23.304;2022-08-01T14:07:44;5.00;;;4.57;;
5499;SDS011;2772;42.700;23.304;2022-08-01T14:10:11;6.37;;;5.73;;
5499;SDS011;2772;42.700;23.304;2022-08-01T14:12:38;4.60;;;4.30;;
5499;SDS011;2772;42.700;23.304;2022-08-01T14:15:06;4.80;;;4.13;;
5499;SDS011;2772;42.700;23.304;2022-08-01T14:17:33;4.50;;;4.30;;
5499;SDS011;2772;42.700;23.304;2022-08-01T14:20:02;5.27;;;4.87;;
5499;SDS011;2772;42.700;23.304;2022-08-01T14:22:30;4.50;;;4.10;;
5499;SDS011;2772;42.700;23.304;2022-08-01T14:24:57;4.93;;;4.43;;
5499;SDS011;2772;42.700;23.304;2022-08-01T14:27:24;4.60;;;4.20;;
5499;SDS011;2772;42.700;23.304;2022-08-01T14:29:54;4.40;;;4.10;;
5499;SDS011;2772;42.700;23.304;2022-08-01T14:32:20;5.07;;;4.67;;
5499;SDS011;2772;42.700;23.304;2022-08-01T14:34:47;4.83;;;4.40;;
5499;SDS011;2772;42.700;23.304;2022-08-01T14:37:15;4.77;;;4.47;;
5499;SDS011;2772;42.700;23.304;2022-08-01T14:39:42;5.43;;;4.57;;
5499;SDS011;2772;42.700;23.304;2022-08-01T14:42:09;5.00;;;4.20;;
5499;SDS011;2772;42.700;23.304;2022-08-01T14:44:36;4.13;;;3.83;;
5499;SDS011;2772;42.700;23.304;2022-08-01T14:47:03;4.47;;;4.27;;
5499;SDS011;2772;42.700;23.304;2022-08-01T14:49:30;6.17;;;3.73;;
5499;SDS011;2772;42.700;23.304;2022-08-01T14:51:57;4.30;;;4.00;;
5499;SDS011;2772;42.700;23.304;2022-08-01T14:54:25;5.83;;;5.43;;
5499;SDS011;2772;42.700;23.304;2022-08-01T14:56:52;4.07;;;3.77;;
5499;SDS011;2772;42.700;23.304;2022-08-01T14:59:19;10.13;;;4.13;;
5499;SDS011;2772;42.700;23.304;2022-08-01T15:01:46;4.00;;;3.80;;
5499;SDS011;2772;42.700;23.304;2022-08-01T15:04:12;5.43;;;4.93;;
5499;SDS011;2772;42.700;23.304;2022-08-01T15:06:39;6.20;;;5.13;;
5499;SDS011;2772;42.700;23.304;2022-08-01T15:09:06;4.03;;;3.63;;
5499;SDS011;2772;42.700;23.304;2022-08-01T15:11:34;6.30;;;3.80;;
5499;SDS011;2772;42.700;23.304;2022-08-01T15:14:01;7.13;;;3.33;;
5499;SDS011;2772;42.700;23.304;2022-08-01T15:16:45;4.13;;;3.83;;
5499;SDS011;2772;42.700;23.304;2022-08-01T15:19:12;4.13;;;3.70;;
5499;SDS011;2772;42.700;23.304;2022-08-01T15:21:39;4.43;;;4.03;;